Time;durP1;ratioP1;P1;durP2;ratioP2;P2;SDS_P1;SDS_P2;PMS_P1;PMS_P2;Temp;Humidity;BMP_temperature;BMP_pressure;BME280_temperature;BME280_humidity;BME280_pressure;Samples;Min_cycle;Max_cycle;Signal;HPM_P1;HPM_P2
2022/02/18 00:01:13;;;;;;;11.23;1.20;;;9.10;99.90;;;;;;4919021;29;20211;-73
2022/02/18 00:03:40;;;;;;;12.63;1.50;;;9.10;99.90;;;;;;4918924;29;20221;-73
2022/02/18 00:06:08;;;;;;;12.67;1.43;;;9.10;99.90;;;;;;4918383;29;20691;-72
2022/02/18 00:08:35;;;;;;;8.20;1.30;;;9.10;99.90;;;;;;4918775;29;20241;-72
2022/02/18 00:11:02;;;;;;;11.37;1.40;;;9.10;99.90;;;;;;4918978;29;20221;-72
2022/02/18 00:13:28;;;;;;;14.37;1.40;;;9.00;99.90;;;;;;4919040;29;20210;-72
2022/02/18 00:15:55;;;;;;;8.47;1.43;;;9.10;99.90;;;;;;4919208;29;20657;-72
2022/02/18 00:18:23;;;;;;;12.30;1.27;;;9.10;99.90;;;;;;4919462;29;20217;-72
2022/02/18 00:20:50;;;;;;;13.17;1.50;;;9.10;99.90;;;;;;4918651;29;20752;-72
2022/02/18 00:23:17;;;;;;;12.10;1.57;;;9.10;99.90;;;;;;4918880;29;20216;-72
2022/02/18 00:25:44;;;;;;;6.37;1.20;;;9.10;99.90;;;;;;4919270;29;20216;-72
2022/02/18 00:28:10;;;;;;;10.57;1.67;;;9.10;99.90;;;;;;4919061;29;20241;-72
2022/02/18 00:30:37;;;;;;;10.40;1.73;;;9.00;99.90;;;;;;4918937;29;20305;-72
2022/02/18 00:33:04;;;;;;;13.23;1.63;;;9.00;99.90;;;;;;4918856;29;20570;-72
2022/02/18 00:35:32;;;;;;;12.83;1.63;;;9.00;99.90;;;;;;4919111;29;20212;-72
2022/02/18 00:38:00;;;;;;;9.93;1.47;;;8.90;99.90;;;;;;4917965;29;20206;-72
2022/02/18 00:40:27;;;;;;;14.30;1.80;;;8.90;99.90;;;;;;4918066;29;20233;-72
2022/02/18 00:42:55;;;;;;;12.83;1.40;;;8.80;99.90;;;;;;4918675;29;20213;-72
2022/02/18 00:45:22;;;;;;;17.00;2.30;;;8.80;99.90;;;;;;4919071;29;20213;-72
2022/02/18 00:47:49;;;;;;;13.47;1.53;;;8.80;99.90;;;;;;4918865;29;20237;-72
2022/02/18 00:50:17;;;;;;;12.23;1.53;;;8.80;99.90;;;;;;4918860;29;20230;-72
2022/02/18 00:52:45;;;;;;;7.43;1.23;;;8.80;99.90;;;;;;4918622;29;20572;-72
2022/02/18 00:55:12;;;;;;;11.50;1.70;;;8.80;99.90;;;;;;4918536;29;20216;-72
2022/02/18 00:57:40;;;;;;;11.30;1.60;;;8.80;99.90;;;;;;4918504;29;20255;-72
2022/02/18 01:00:09;;;;;;;7.40;1.23;;;8.80;99.90;;;;;;4918999;29;20312;-72
2022/02/18 01:02:36;;;;;;;6.47;1.33;;;8.80;99.90;;;;;;4918696;29;20229;-72
2022/02/18 01:05:03;;;;;;;16.57;1.80;;;8.80;99.90;;;;;;4917983;29;20210;-72
2022/02/18 01:07:30;;;;;;;11.33;1.37;;;8.80;99.90;;;;;;4918677;29;20234;-72
2022/02/18 01:09:58;;;;;;;5.70;1.07;;;8.80;99.90;;;;;;4918314;29;20234;-72
2022/02/18 01:12:25;;;;;;;13.83;1.53;;;8.80;99.90;;;;;;4918421;29;20692;-72
2022/02/18 01:14:52;;;;;;;8.97;1.20;;;8.80;99.90;;;;;;4918522;29;20218;-72
2022/02/18 01:17:20;;;;;;;10.07;0.97;;;8.80;99.90;;;;;;4918092;29;20213;-72
2022/02/18 01:19:47;;;;;;;11.67;1.80;;;8.80;99.90;;;;;;4918167;29;20229;-72
2022/02/18 01:22:14;;;;;;;13.63;1.87;;;8.90;99.90;;;;;;4917775;29;20576;-72
2022/02/18 01:24:40;;;;;;;11.77;1.50;;;8.80;99.90;;;;;;4918164;29;20684;-72
2022/02/18 01:27:09;;;;;;;5.47;1.00;;;8.80;99.90;;;;;;4917988;29;20681;-72
2022/02/18 01:29:39;;;;;;;10.93;1.43;;;8.90;99.90;;;;;;4917647;29;20237;-72
2022/02/18 01:32:07;;;;;;;10.83;1.23;;;8.90;99.90;;;;;;4918251;29;20304;-72
2022/02/18 01:34:33;;;;;;;8.00;0.90;;;8.90;99.90;;;;;;4917908;29;20205;-72
2022/02/18 01:37:00;;;;;;;15.67;1.67;;;8.90;99.90;;;;;;4917456;29;20205;-72
2022/02/18 01:39:27;;;;;;;8.43;1.00;;;9.00;99.90;;;;;;4918017;29;20229;-72
2022/02/18 01:41:54;;;;;;;8.07;1.00;;;9.00;99.90;;;;;;4917820;29;20212;-72
2022/02/18 01:44:34;;;;;;;8.03;0.87;;;9.00;99.90;;;;;;4917799;29;20232;-72
2022/02/18 01:47:01;;;;;;;8.40;1.10;;;9.00;99.90;;;;;;4917424;29;20219;-72
2022/02/18 01:49:28;;;;;;;10.37;1.80;;;9.00;99.90;;;;;;4917281;29;20241;-72
2022/02/18 01:51:55;;;;;;;9.47;1.20;;;9.00;99.90;;;;;;4917616;29;20707;-72
2022/02/18 01:54:22;;;;;;;7.00;0.97;;;9.00;99.90;;;;;;4917236;29;20665;-72
2022/02/18 01:56:49;;;;;;;9.73;1.30;;;9.00;99.90;;;;;;4917614;29;20216;-72
2022/02/18 01:59:16;;;;;;;6.20;1.03;;;8.90;99.90;;;;;;4917545;29;20236;-71
2022/02/18 02:01:44;;;;;;;5.70;0.97;;;8.90;99.90;;;;;;4917185;29;20691;-72
2022/02/18 02:04:11;;;;;;;12.10;1.40;;;8.80;99.90;;;;;;4917496;29;20672;-72
2022/02/18 02:06:38;;;;;;;11.70;1.47;;;9.00;99.90;;;;;;4917447;29;20265;-72
2022/02/18 02:09:05;;;;;;;12.17;1.40;;;8.90;99.90;;;;;;4917492;29;20750;-72
2022/02/18 02:11:32;;;;;;;10.00;0.90;;;8.80;99.90;;;;;;4916934;29;20208;-72
2022/02/18 02:14:04;;;;;;;13.07;1.87;;;8.80;99.90;;;;;;4917102;29;20209;-72
2022/02/18 02:16:31;;;;;;;7.40;1.10;;;8.80;99.90;;;;;;4916916;29;20207;-72
2022/02/18 02:18:59;;;;;;;13.93;1.33;;;8.80;99.90;;;;;;4916479;29;20233;-72
2022/02/18 02:21:27;;;;;;;8.10;2.00;;;8.90;99.90;;;;;;4916983;29;20300;-72
2022/02/18 02:23:55;;;;;;;7.63;1.50;;;8.80;99.90;;;;;;4917412;29;20657;-73
2022/02/18 02:26:23;;;;;;;10.70;2.33;;;8.80;99.90;;;;;;4917552;29;20212;-72
2022/02/18 02:28:49;;;;;;;7.77;1.80;;;8.90;99.90;;;;;;4916921;29;20700;-73
2022/02/18 02:31:16;;;;;;;6.77;1.57;;;9.00;99.90;;;;;;4916420;29;20202;-71
2022/02/18 02:33:43;;;;;;;12.80;1.40;;;9.10;99.90;;;;;;4916703;29;20216;-73
2022/02/18 02:36:10;;;;;;;8.53;1.67;;;9.10;99.90;;;;;;4916873;29;20206;-73
2022/02/18 02:38:36;;;;;;;14.17;2.43;;;9.20;99.90;;;;;;4916785;29;20574;-72
2022/02/18 02:41:05;;;;;;;11.63;2.27;;;9.20;99.90;;;;;;4916684;29;20209;-72
2022/02/18 02:43:32;;;;;;;13.07;1.50;;;9.20;99.90;;;;;;4917103;29;20220;-71
2022/02/18 02:45:58;;;;;;;6.93;1.27;;;9.20;99.90;;;;;;4916694;29;20657;-72
2022/02/18 02:48:25;;;;;;;8.67;1.20;;;9.10;99.90;;;;;;4916551;29;20245;-73
2022/02/18 02:50:52;;;;;;;8.43;1.30;;;9.20;99.90;;;;;;4916971;29;20205;-73
2022/02/18 02:53:19;;;;;;;15.90;1.93;;;9.20;99.90;;;;;;4916847;29;20205;-72
2022/02/18 02:55:46;;;;;;;8.73;1.40;;;9.20;99.90;;;;;;4916700;29;20214;-72
2022/02/18 02:58:14;;;;;;;5.73;1.20;;;9.30;99.90;;;;;;4916578;29;20213;-73
2022/02/18 03:00:41;;;;;;;7.70;1.13;;;9.30;99.90;;;;;;4915933;29;20210;-72
2022/02/18 03:03:07;;;;;;;9.37;1.50;;;9.30;99.90;;;;;;4916313;29;20228;-72
2022/02/18 03:05:34;;;;;;;8.63;1.50;;;9.30;99.90;;;;;;4916795;29;20221;-72
2022/02/18 03:08:03;;;;;;;6.17;1.50;;;9.30;99.90;;;;;;4917105;29;20259;-73
2022/02/18 03:10:30;;;;;;;4.37;1.03;;;9.20;99.90;;;;;;4916500;29;20220;-72
2022/02/18 03:12:57;;;;;;;6.10;1.00;;;9.10;99.90;;;;;;4916230;29;20209;-72
2022/02/18 03:15:25;;;;;;;7.47;1.40;;;9.10;99.90;;;;;;4916384;29;20218;-72
2022/02/18 03:17:52;;;;;;;7.57;1.27;;;9.10;99.90;;;;;;4916681;29;20239;-73
2022/02/18 03:20:19;;;;;;;7.17;0.90;;;9.00;99.90;;;;;;4916438;29;20240;-73
2022/02/18 03:22:46;;;;;;;3.43;0.60;;;9.10;99.90;;;;;;4916471;29;20221;-73
2022/02/18 03:25:13;;;;;;;7.87;2.30;;;9.20;99.90;;;;;;4916486;29;20213;-72
2022/02/18 03:27:42;;;;;;;4.37;0.83;;;9.20;99.90;;;;;;4915365;29;20669;-73
2022/02/18 03:30:10;;;;;;;4.90;0.93;;;9.20;99.90;;;;;;4915965;29;20229;-73
2022/02/18 03:32:38;;;;;;;6.47;1.00;;;9.20;99.90;;;;;;4916480;29;20209;-74
2022/02/18 03:35:06;;;;;;;5.93;1.00;;;9.30;99.90;;;;;;4916205;29;20315;-74
2022/02/18 03:37:33;;;;;;;7.80;1.10;;;9.40;99.90;;;;;;4916374;29;20220;-73
2022/02/18 03:39:59;;;;;;;8.67;0.93;;;9.50;99.90;;;;;;4916431;29;20234;-73
2022/02/18 03:42:26;;;;;;;12.43;0.97;;;9.40;99.90;;;;;;4916174;29;20587;-73
2022/02/18 03:44:53;;;;;;;6.07;1.13;;;9.30;99.90;;;;;;4915401;29;20621;-73
2022/02/18 03:47:20;;;;;;;4.10;0.70;;;9.20;99.90;;;;;;4916033;29;20212;-73
2022/02/18 03:49:48;;;;;;;5.43;1.23;;;9.30;99.90;;;;;;4915904;29;20244;-74
2022/02/18 03:52:14;;;;;;;7.90;1.43;;;9.40;99.90;;;;;;4915978;29;20573;-73
2022/02/18 03:54:41;;;;;;;5.93;1.00;;;9.40;99.90;;;;;;4916139;29;20209;-73
2022/02/18 03:57:08;;;;;;;6.07;0.97;;;9.40;99.90;;;;;;4916162;29;20294;-73
2022/02/18 03:59:35;;;;;;;7.13;0.83;;;9.50;99.90;;;;;;4915267;29;20228;-73
2022/02/18 04:02:02;;;;;;;7.97;1.10;;;9.40;99.90;;;;;;4915083;29;20221;-73
2022/02/18 04:04:29;;;;;;;5.63;1.10;;;9.40;99.90;;;;;;4915653;29;20206;-73
2022/02/18 04:06:57;;;;;;;8.70;1.03;;;9.40;99.90;;;;;;4915548;29;20218;-73
2022/02/18 04:09:24;;;;;;;7.10;1.27;;;9.40;99.90;;;;;;4915424;29;20247;-73
2022/02/18 04:11:50;;;;;;;10.40;1.10;;;9.40;99.90;;;;;;4915967;29;20209;-73
2022/02/18 04:14:17;;;;;;;10.33;1.60;;;9.30;99.90;;;;;;4917422;29;20205;-73
2022/02/18 04:16:44;;;;;;;5.03;1.90;;;9.30;99.90;;;;;;4919348;29;20213;-73
2022/02/18 04:19:11;;;;;;;12.30;1.37;;;9.20;99.90;;;;;;4919033;29;20237;-73
2022/02/18 04:21:38;;;;;;;6.30;1.40;;;9.10;99.90;;;;;;4919358;29;20216;-72
2022/02/18 04:24:06;;;;;;;8.13;1.03;;;9.20;99.90;;;;;;4919130;29;20209;-72
2022/02/18 04:26:33;;;;;;;7.07;1.10;;;9.20;99.90;;;;;;4919746;29;20216;-72
2022/02/18 04:29:00;;;;;;;8.70;1.13;;;9.20;99.90;;;;;;4919283;29;20241;-72
2022/02/18 04:31:27;;;;;;;10.53;0.83;;;9.20;99.90;;;;;;4918778;29;20202;-72
2022/02/18 04:33:53;;;;;;;9.03;1.30;;;9.10;99.90;;;;;;4918958;29;20205;-73
2022/02/18 04:36:20;;;;;;;9.33;1.30;;;9.20;99.90;;;;;;4918741;29;20220;-72
2022/02/18 04:38:47;;;;;;;7.00;1.00;;;9.20;99.90;;;;;;4919132;29;20351;-73
2022/02/18 04:41:15;;;;;;;7.80;0.90;;;9.30;99.90;;;;;;4919284;29;20209;-72
2022/02/18 04:43:42;;;;;;;7.87;1.00;;;9.30;99.90;;;;;;4919433;29;20213;-73
2022/02/18 04:46:09;;;;;;;4.67;1.00;;;9.30;99.90;;;;;;4919005;29;20216;-73
2022/02/18 04:48:36;;;;;;;6.17;1.57;;;9.30;99.90;;;;;;4918050;29;20237;-73
2022/02/18 04:51:02;;;;;;;7.60;1.47;;;9.20;99.90;;;;;;4918713;29;20210;-73
2022/02/18 04:53:29;;;;;;;5.17;0.93;;;9.20;99.90;;;;;;4918918;29;20214;-72
2022/02/18 04:55:56;;;;;;;9.83;1.30;;;9.20;99.90;;;;;;4918676;29;20669;-73
2022/02/18 04:58:24;;;;;;;7.60;1.23;;;9.20;99.90;;;;;;4918385;29;20202;-73
2022/02/18 05:00:51;;;;;;;15.33;1.60;;;9.20;99.90;;;;;;4917819;29;20217;-73
2022/02/18 05:03:18;;;;;;;8.23;1.00;;;9.20;99.90;;;;;;4918329;29;20228;-73
2022/02/18 05:05:44;;;;;;;10.27;1.13;;;9.10;99.90;;;;;;4918481;29;20677;-73
2022/02/18 05:08:11;;;;;;;7.67;1.30;;;9.00;99.90;;;;;;4918557;29;20214;-73
2022/02/18 05:10:38;;;;;;;9.90;1.20;;;9.00;99.90;;;;;;4918841;29;20668;-73
2022/02/18 05:13:05;;;;;;;7.53;0.80;;;9.00;99.90;;;;;;4918169;29;20212;-73
2022/02/18 05:15:33;;;;;;;8.13;1.53;;;8.90;99.90;;;;;;4918681;29;20228;-72
2022/02/18 05:18:03;;;;;;;6.40;1.40;;;8.70;99.90;;;;;;4917951;29;20214;-73
2022/02/18 05:20:30;;;;;;;8.93;1.13;;;8.70;99.90;;;;;;4918780;29;20210;-73
2022/02/18 05:22:58;;;;;;;11.50;1.70;;;8.70;99.90;;;;;;4918599;29;20210;-73
2022/02/18 05:25:25;;;;;;;6.87;1.43;;;8.50;99.90;;;;;;4917932;29;20206;-73
2022/02/18 05:27:52;;;;;;;8.00;1.20;;;8.50;99.90;;;;;;4917326;29;20212;-73
2022/02/18 05:30:19;;;;;;;9.13;1.27;;;8.50;99.90;;;;;;4917945;29;20260;-73
2022/02/18 05:32:47;;;;;;;9.77;1.40;;;8.50;99.90;;;;;;4917843;29;20227;-73
2022/02/18 05:35:14;;;;;;;6.20;0.90;;;8.50;99.90;;;;;;4917869;29;20214;-74
2022/02/18 05:37:41;;;;;;;7.00;0.90;;;8.50;99.90;;;;;;4918040;29;20576;-74
2022/02/18 05:40:09;;;;;;;6.10;1.30;;;8.60;99.90;;;;;;4918089;29;20236;-75
2022/02/18 05:42:36;;;;;;;8.20;1.43;;;8.60;99.90;;;;;;4917965;29;20209;-74
2022/02/18 05:45:03;;;;;;;7.70;1.20;;;8.70;99.90;;;;;;4916496;29;20212;-74
2022/02/18 05:47:33;;;;;;;3.27;0.80;;;8.60;99.90;;;;;;4917431;29;20232;-74
2022/02/18 05:50:01;;;;;;;5.13;0.77;;;8.60;99.90;;;;;;4916844;29;20233;-74
2022/02/18 05:52:28;;;;;;;9.30;1.20;;;8.60;99.90;;;;;;4917607;29;20210;-74
2022/02/18 05:54:55;;;;;;;5.80;1.43;;;8.70;99.90;;;;;;4917317;29;20209;-73
2022/02/18 05:57:22;;;;;;;4.13;0.90;;;8.70;99.90;;;;;;4917645;29;20209;-72
2022/02/18 05:59:49;;;;;;;3.37;0.73;;;8.80;99.90;;;;;;4917391;29;20237;-75
2022/02/18 06:02:15;;;;;;;6.37;0.90;;;8.80;99.90;;;;;;4917197;29;20296;-73
2022/02/18 06:04:42;;;;;;;7.10;0.83;;;8.80;99.90;;;;;;4917743;29;20218;-72
2022/02/18 06:07:10;;;;;;;4.67;0.90;;;8.80;99.90;;;;;;4917444;29;20243;-73
2022/02/18 06:09:37;;;;;;;6.20;1.00;;;8.90;99.90;;;;;;4917472;29;20256;-74
2022/02/18 06:12:04;;;;;;;6.20;1.73;;;9.00;99.90;;;;;;4917619;29;20209;-74
2022/02/18 06:14:31;;;;;;;7.27;1.00;;;9.10;99.90;;;;;;4917658;29;20217;-73
2022/02/18 06:16:58;;;;;;;3.77;0.90;;;9.10;99.90;;;;;;4917486;29;20209;-73
2022/02/18 06:19:25;;;;;;;4.10;0.60;;;9.20;99.90;;;;;;4916882;29;20233;-74
2022/02/18 06:21:52;;;;;;;9.70;1.20;;;9.20;99.90;;;;;;4917272;29;20213;-74
2022/02/18 06:24:20;;;;;;;5.93;0.70;;;9.20;99.90;;;;;;4917246;29;20216;-73
2022/02/18 06:26:46;;;;;;;3.53;0.83;;;9.20;99.90;;;;;;4917201;29;20220;-74
2022/02/18 06:29:13;;;;;;;6.47;1.10;;;9.30;99.90;;;;;;4917428;29;20234;-73
2022/02/18 06:31:40;;;;;;;2.67;0.70;;;9.40;99.90;;;;;;4917304;29;20206;-73
2022/02/18 06:34:07;;;;;;;5.00;1.50;;;9.40;99.90;;;;;;4917057;29;20237;-73
2022/02/18 06:36:33;;;;;;;3.20;0.63;;;9.40;99.90;;;;;;4916477;29;20570;-74
2022/02/18 06:39:00;;;;;;;4.97;0.90;;;9.50;99.90;;;;;;4916979;29;20225;-73
2022/02/18 06:41:29;;;;;;;4.30;0.80;;;9.70;99.90;;;;;;4917128;29;20214;-73
2022/02/18 06:43:55;;;;;;;1.57;0.50;;;9.70;99.90;;;;;;4917500;29;20214;-74
2022/02/18 06:46:24;;;;;;;6.67;1.57;;;9.80;99.90;;;;;;4917045;29;20217;-73
2022/02/18 06:48:50;;;;;;;5.00;0.90;;;9.90;99.90;;;;;;4916486;29;20229;-73
2022/02/18 06:51:17;;;;;;;1.57;0.70;;;9.90;99.90;;;;;;4916791;29;20213;-73
2022/02/18 06:53:44;;;;;;;1.60;0.50;;;10.00;99.90;;;;;;4916887;29;20309;-73
2022/02/18 06:56:11;;;;;;;1.47;0.70;;;10.10;99.90;;;;;;4916422;29;20213;-73
2022/02/18 06:58:39;;;;;;;6.23;0.80;;;10.20;99.90;;;;;;4916867;29;20230;-74
2022/02/18 07:01:06;;;;;;;2.63;0.60;;;10.30;99.90;;;;;;4916992;29;20217;-73
2022/02/18 07:03:33;;;;;;;3.70;0.70;;;10.30;99.90;;;;;;4916765;29;20657;-73
2022/02/18 07:06:02;;;;;;;1.57;0.37;;;10.40;99.90;;;;;;4916821;29;20229;-75
2022/02/18 07:08:29;;;;;;;1.03;0.43;;;10.40;99.90;;;;;;4916752;29;20324;-74
2022/02/18 07:10:56;;;;;;;1.37;0.60;;;10.50;99.90;;;;;;4916543;29;20238;-73
2022/02/18 07:13:23;;;;;;;1.60;0.60;;;10.50;99.90;;;;;;4915589;29;20202;-74
2022/02/18 07:15:51;;;;;;;0.83;0.50;;;10.60;99.90;;;;;;4915899;29;20293;-73
2022/02/18 07:18:18;;;;;;;0.97;0.60;;;10.70;99.90;;;;;;4915312;29;20220;-73
2022/02/18 07:20:47;;;;;;;3.60;0.80;;;10.70;99.90;;;;;;4916619;29;20217;-73
2022/02/18 07:23:14;;;;;;;2.20;0.40;;;10.70;99.90;;;;;;4916336;29;20245;-73
2022/02/18 07:25:41;;;;;;;2.00;0.53;;;10.80;99.90;;;;;;4916756;29;20214;-72
2022/02/18 07:28:07;;;;;;;2.00;0.57;;;10.80;99.90;;;;;;4916470;29;20206;-73
2022/02/18 07:30:34;;;;;;;2.27;0.60;;;10.80;99.90;;;;;;4916644;29;20237;-73
2022/02/18 07:33:03;;;;;;;1.77;0.50;;;10.90;99.90;;;;;;4916505;29;20209;-73
2022/02/18 07:35:32;;;;;;;0.67;0.40;;;10.90;99.90;;;;;;4916659;29;20217;-73
2022/02/18 07:38:00;;;;;;;1.67;0.57;;;11.00;99.90;;;;;;4916877;29;20217;-73
2022/02/18 07:40:27;;;;;;;0.47;0.40;;;10.90;99.90;;;;;;4916549;29;20230;-73
2022/02/18 07:42:54;;;;;;;1.40;0.50;;;11.00;99.90;;;;;;4916462;29;20205;-73
2022/02/18 07:45:21;;;;;;;0.87;0.50;;;11.00;99.90;;;;;;4916305;29;20216;-73
2022/02/18 07:47:52;;;;;;;1.87;0.50;;;11.00;99.90;;;;;;4916498;29;20214;-73
2022/02/18 07:50:21;;;;;;;0.60;0.30;;;11.10;99.90;;;;;;4919788;29;20264;-73
2022/02/18 07:52:48;;;;;;;0.50;0.30;;;11.10;99.90;;;;;;4919787;29;20214;-73
2022/02/18 07:55:14;;;;;;;1.80;0.33;;;11.20;99.90;;;;;;4919806;29;20214;-73
2022/02/18 07:57:41;;;;;;;0.70;0.40;;;11.20;99.90;;;;;;4919625;29;20210;-73
2022/02/18 08:00:09;;;;;;;0.87;0.40;;;11.20;99.90;;;;;;4919843;29;20233;-73
2022/02/18 08:02:36;;;;;;;0.83;0.43;;;11.30;99.90;;;;;;4919669;29;20217;-73
2022/02/18 08:05:05;;;;;;;1.57;0.50;;;11.30;99.90;;;;;;4919796;29;20213;-73
2022/02/18 08:07:33;;;;;;;1.17;0.50;;;11.30;99.90;;;;;;4915383;29;20691;-74
2022/02/18 08:10:00;;;;;;;0.70;0.40;;;11.40;99.90;;;;;;4918524;29;20255;-73
2022/02/18 08:12:27;;;;;;;1.13;0.60;;;11.40;99.90;;;;;;4918757;29;20212;-72
2022/02/18 08:14:53;;;;;;;1.00;0.50;;;11.40;99.90;;;;;;4917771;29;20213;-74
2022/02/18 08:17:20;;;;;;;1.23;0.40;;;11.40;99.90;;;;;;4918032;29;20213;-73
2022/02/18 08:19:47;;;;;;;0.90;0.37;;;11.50;99.90;;;;;;4918137;29;20251;-76
2022/02/18 08:22:17;;;;;;;0.57;0.30;;;11.50;99.90;;;;;;4917987;29;20577;-74
2022/02/18 08:24:45;;;;;;;0.47;0.40;;;11.50;99.90;;;;;;4918411;29;20303;-72
2022/02/18 08:27:12;;;;;;;0.50;0.30;;;11.60;99.90;;;;;;4918391;29;20206;-73
2022/02/18 08:29:38;;;;;;;1.63;0.40;;;11.60;99.90;;;;;;4917456;29;20615;-73
2022/02/18 08:32:06;;;;;;;0.70;0.50;;;11.70;99.90;;;;;;4917865;29;20665;-72
2022/02/18 08:34:32;;;;;;;0.60;0.30;;;11.70;99.90;;;;;;4917979;29;20215;-73
2022/02/18 08:37:01;;;;;;;0.90;0.60;;;11.70;99.90;;;;;;4917259;29;20685;-75
2022/02/18 08:39:28;;;;;;;0.67;0.50;;;11.80;99.90;;;;;;4917942;29;20230;-73
2022/02/18 08:41:56;;;;;;;0.73;0.43;;;11.80;99.90;;;;;;4917915;29;20669;-72
2022/02/18 08:44:23;;;;;;;0.40;0.37;;;11.90;99.90;;;;;;4917326;29;20221;-72
2022/02/18 08:46:50;;;;;;;0.83;0.30;;;12.00;99.90;;;;;;4917847;29;20220;-74
2022/02/18 08:49:16;;;;;;;1.90;0.40;;;12.10;99.90;;;;;;4917683;29;20256;-73
2022/02/18 08:51:43;;;;;;;0.87;0.30;;;12.10;99.90;;;;;;4917486;29;20244;-73
2022/02/18 08:54:10;;;;;;;2.00;0.30;;;12.20;99.90;;;;;;4917477;29;20624;-72
2022/02/18 08:56:37;;;;;;;2.80;0.50;;;12.20;99.90;;;;;;4917636;29;20210;-73
2022/02/18 08:59:07;;;;;;;1.73;0.30;;;12.10;99.90;;;;;;4916747;29;20226;-73
2022/02/18 09:01:35;;;;;;;0.77;0.40;;;12.10;99.90;;;;;;4917133;29;20229;-72
2022/02/18 09:04:01;;;;;;;0.73;0.40;;;12.10;99.90;;;;;;4913678;29;20205;-73
2022/02/18 09:06:28;;;;;;;0.40;0.30;;;12.20;99.90;;;;;;4915857;29;20206;-75
2022/02/18 09:08:55;;;;;;;1.07;0.30;;;12.20;99.90;;;;;;4917581;29;20233;-75
2022/02/18 09:11:22;;;;;;;0.37;0.27;;;12.20;99.90;;;;;;4917165;29;20234;-72
2022/02/18 09:13:50;;;;;;;0.73;0.40;;;12.20;99.90;;;;;;4917027;29;20296;-74
2022/02/18 09:16:20;;;;;;;1.73;0.40;;;12.20;99.90;;;;;;4918459;29;20675;-74
2022/02/18 09:18:47;;;;;;;1.23;0.30;;;12.20;99.90;;;;;;4918265;29;20234;-74
2022/02/18 09:21:13;;;;;;;2.33;0.43;;;12.10;99.90;;;;;;4918557;29;20216;-74
2022/02/18 09:23:40;;;;;;;1.20;0.30;;;12.00;99.90;;;;;;4918412;29;20225;-75
2022/02/18 09:26:07;;;;;;;0.37;0.33;;;12.00;99.90;;;;;;4918620;29;20213;-74
2022/02/18 09:28:34;;;;;;;1.03;0.30;;;12.00;99.90;;;;;;4918341;29;20230;-75
2022/02/18 09:31:01;;;;;;;0.30;0.20;;;12.00;99.90;;;;;;4918764;29;20241;-75
2022/02/18 09:33:30;;;;;;;0.50;0.30;;;12.00;99.90;;;;;;4918214;29;20561;-74
2022/02/18 09:35:57;;;;;;;0.87;0.40;;;11.90;99.90;;;;;;4918613;29;20257;-74
2022/02/18 09:38:26;;;;;;;0.40;0.30;;;11.80;99.90;;;;;;4918145;29;20216;-74
2022/02/18 09:40:53;;;;;;;0.50;0.40;;;11.80;99.90;;;;;;4918168;29;20303;-74
2022/02/18 09:43:22;;;;;;;0.53;0.30;;;11.80;99.90;;;;;;4918338;29;20205;-74
2022/02/18 09:45:49;;;;;;;0.50;0.30;;;11.70;99.90;;;;;;4918082;29;20217;-74
2022/02/18 09:48:16;;;;;;;1.03;0.30;;;11.70;99.90;;;;;;4917922;29;20216;-74
2022/02/18 09:50:44;;;;;;;0.67;0.30;;;11.70;99.90;;;;;;4917640;29;20708;-74
2022/02/18 09:53:11;;;;;;;0.23;0.20;;;11.70;99.90;;;;;;4917886;29;20276;-74
2022/02/18 09:55:40;;;;;;;0.40;0.30;;;11.80;99.90;;;;;;4918113;29;20231;-74
2022/02/18 09:58:08;;;;;;;0.57;0.37;;;11.80;99.90;;;;;;4917737;29;20209;-74
2022/02/18 10:00:36;;;;;;;1.00;0.40;;;11.80;99.90;;;;;;4917682;29;20205;-73
2022/02/18 10:03:03;;;;;;;0.90;0.40;;;11.80;99.90;;;;;;4917855;29;20258;-74
2022/02/18 10:05:30;;;;;;;1.07;0.47;;;11.90;99.90;;;;;;4918060;29;20214;-74
2022/02/18 10:08:07;;;;;;;1.73;0.47;;;11.90;99.90;;;;;;4917753;29;20675;-74
2022/02/18 10:10:35;;;;;;;2.77;0.30;;;12.00;99.90;;;;;;4917353;29;20604;-74
2022/02/18 10:13:02;;;;;;;0.47;0.30;;;12.00;99.90;;;;;;4916597;29;20577;-74
2022/02/18 10:15:30;;;;;;;0.50;0.30;;;12.20;99.90;;;;;;4917401;29;20296;-73
2022/02/18 10:18:00;;;;;;;0.73;0.20;;;12.30;99.90;;;;;;4917226;29;20684;-74
2022/02/18 10:20:29;;;;;;;0.67;0.20;;;12.30;99.90;;;;;;4917299;29;20329;-74
2022/02/18 10:22:58;;;;;;;0.30;0.20;;;12.30;99.90;;;;;;4917150;29;20213;-73
2022/02/18 10:25:28;;;;;;;0.73;0.40;;;12.40;99.90;;;;;;4917154;29;20670;-74
2022/02/18 10:27:56;;;;;;;0.47;0.30;;;12.40;99.90;;;;;;4917224;29;20216;-74
2022/02/18 10:30:25;;;;;;;0.60;0.30;;;12.50;99.90;;;;;;4916974;29;20248;-74
2022/02/18 10:32:52;;;;;;;0.37;0.20;;;12.60;99.90;;;;;;4917262;29;20212;-73
2022/02/18 10:35:22;;;;;;;0.40;0.30;;;12.60;99.90;;;;;;4917507;29;20206;-73
2022/02/18 10:37:53;;;;;;;1.13;0.30;;;12.70;99.90;;;;;;4916919;29;20210;-73
2022/02/18 10:40:20;;;;;;;0.50;0.40;;;12.70;99.90;;;;;;4916427;29;20300;-74
2022/02/18 10:42:50;;;;;;;0.30;0.20;;;12.80;99.90;;;;;;4916256;29;20214;-73
2022/02/18 10:45:19;;;;;;;2.30;0.37;;;12.80;99.90;;;;;;4915498;29;20213;-74
2022/02/18 10:47:47;;;;;;;2.37;0.20;;;12.80;99.90;;;;;;4916266;29;20216;-73
2022/02/18 10:50:16;;;;;;;1.60;0.50;;;12.80;99.90;;;;;;4915480;29;20601;-74
2022/02/18 10:52:43;;;;;;;1.73;0.30;;;12.80;99.90;;;;;;4916631;29;20213;-74
2022/02/18 10:55:11;;;;;;;0.43;0.23;;;12.80;99.90;;;;;;4917008;29;20213;-75
2022/02/18 10:57:38;;;;;;;0.60;0.10;;;12.80;99.90;;;;;;4916629;29;20209;-74
2022/02/18 11:00:16;;;;;;;1.50;0.30;;;12.80;99.90;;;;;;4916588;29;20230;-74
2022/02/18 11:02:50;;;;;;;0.50;0.20;;;12.80;99.90;;;;;;4916948;29;20249;-74
2022/02/18 11:05:30;;;;;;;0.40;0.20;;;12.80;99.90;;;;;;4916664;29;20252;-75
2022/02/18 11:07:58;;;;;;;0.43;0.20;;;12.90;99.90;;;;;;4916703;29;20735;-72
2022/02/18 11:10:37;;;;;;;1.03;0.30;;;12.90;99.90;;;;;;4916902;29;20708;-75
2022/02/18 11:13:05;;;;;;;0.47;0.30;;;12.90;99.90;;;;;;4917092;29;20205;-75
2022/02/18 11:15:36;;;;;;;0.53;0.20;;;12.90;99.90;;;;;;4916899;29;20572;-74
2022/02/18 11:18:03;;;;;;;0.30;0.30;;;12.90;99.90;;;;;;4916641;29;20205;-75
2022/02/18 11:20:30;;;;;;;0.70;0.30;;;12.90;99.90;;;;;;4916377;29;20234;-75
2022/02/18 11:22:58;;;;;;;0.70;0.20;;;12.90;99.90;;;;;;4916562;29;20213;-76
2022/02/18 11:25:26;;;;;;;0.67;0.30;;;12.80;99.90;;;;;;4916865;29;20209;-75
2022/02/18 11:27:53;;;;;;;0.20;0.17;;;12.70;99.90;;;;;;4916833;29;20224;-75
2022/02/18 11:30:20;;;;;;;0.50;0.20;;;12.80;99.90;;;;;;4916603;29;20229;-75
2022/02/18 11:33:01;;;;;;;0.40;0.20;;;12.90;99.90;;;;;;4916159;29;20213;-77
2022/02/18 11:35:43;;;;;;;0.70;0.30;;;12.90;99.90;;;;;;4916721;29;20227;-75
2022/02/18 11:38:39;;;;;;;0.40;0.10;;;12.80;99.90;;;;;;4916297;29;20221;-75
2022/02/18 11:41:18;;;;;;;0.60;0.20;;;12.80;99.90;;;;;;4916153;29;20214;-75
2022/02/18 11:43:46;;;;;;;0.30;0.10;;;12.70;99.90;;;;;;4916223;29;20210;-75
2022/02/18 11:46:22;;;;;;;0.60;0.30;;;12.70;99.90;;;;;;4916276;29;20216;-75
2022/02/18 11:48:53;;;;;;;0.40;0.20;;;12.70;99.90;;;;;;4916396;29;20229;-75
2022/02/18 11:51:23;;;;;;;0.60;0.30;;;12.70;99.90;;;;;;4916273;29;20332;-75
2022/02/18 11:53:51;;;;;;;0.33;0.23;;;12.60;99.90;;;;;;4915736;29;20209;-75
2022/02/18 11:56:39;;;;;;;0.63;0.63;;;12.50;99.90;;;;;;4916237;29;20205;-75
2022/02/18 11:59:06;;;;;;;3.03;0.33;;;12.40;99.90;;;;;;4912479;29;20637;-73
2022/02/18 12:02:08;;;;;;;0.63;0.47;;;12.40;99.90;;;;;;4915268;29;20538;-72
2022/02/18 12:04:37;;;;;;;0.30;0.17;;;12.40;99.90;;;;;;4914994;29;20576;-75
2022/02/18 12:07:30;;;;;;;0.43;0.20;;;12.20;99.90;;;;;;4914637;29;20217;-71
2022/02/18 12:10:15;;;;;;;0.43;0.30;;;12.10;99.90;;;;;;4914736;29;20236;-73
2022/02/18 12:12:43;;;;;;;1.60;0.63;;;12.10;99.90;;;;;;4914213;29;20245;-74
2022/02/18 12:15:15;;;;;;;0.77;0.30;;;12.10;99.90;;;;;;4915352;29;20235;-75
2022/02/18 12:17:45;;;;;;;0.40;0.30;;;12.10;99.90;;;;;;4914640;29;20208;-72
2022/02/18 12:20:17;;;;;;;0.40;0.20;;;12.10;99.90;;;;;;4914237;29;20265;-74
2022/02/18 12:22:44;;;;;;;0.30;0.20;;;12.00;99.90;;;;;;4914991;29;20214;-73
2022/02/18 12:25:20;;;;;;;0.40;0.27;;;11.90;99.90;;;;;;4915015;29;20218;-73
2022/02/18 12:27:47;;;;;;;2.57;0.60;;;11.80;99.90;;;;;;4909358;29;20236;-77
2022/02/18 12:30:53;;;;;;;2.10;0.40;;;11.40;99.90;;;;;;4914745;29;20230;-77
2022/02/18 12:33:20;;;;;;;1.77;0.40;;;11.00;99.90;;;;;;4914298;29;20219;-77
2022/02/18 12:35:48;;;;;;;0.70;0.47;;;10.80;99.90;;;;;;4916289;29;20212;-80
2022/02/18 12:38:16;;;;;;;1.27;0.40;;;10.60;99.90;;;;;;4917892;29;20209;-80
2022/02/18 12:40:44;;;;;;;3.40;0.53;;;10.50;99.90;;;;;;4918775;29;20234;-73
2022/02/18 12:43:16;;;;;;;3.60;0.70;;;10.30;99.90;;;;;;4916568;29;20209;-80
2022/02/18 12:45:52;;;;;;;0.77;0.40;;;10.20;99.90;;;;;;4917396;29;20205;-82
2022/02/18 12:48:37;;;;;;;1.83;0.47;;;9.90;99.90;;;;;;4917520;29;20277;-79
2022/02/18 12:51:11;;;;;;;3.53;1.33;;;9.80;99.90;;;;;;4917753;29;20241;-74
2022/02/18 12:53:39;;;;;;;3.77;0.60;;;9.80;99.90;;;;;;4917495;29;20209;-78
2022/02/18 12:56:14;;;;;;;2.73;0.70;;;9.70;99.90;;;;;;4917138;29;20209;-70